Flight Track Log - Related Links

Times and Time Zones

All times are in EDT time to prevent confusion due to time zone crossing. See the N62568 flight status page for this flight to view local times or setup timezone preferences in your user account.

Time Position Orientation Groundspeed Altitude Reporting Facility
EDT Latitude Longitude Course Direction KTS MPH feet Rate Location/Type
Sat 02:48:54 PM 30.1289 -81.8814 152° Southeast 77 89 3,400  Level Jacksonville Center
Sat 02:50:00 PM 30.1058 -81.8672 145° Southeast 97 112 3,400  Level Jacksonville Center
Sat 02:51:01 PM 30.0828 -81.8483 158° South 100 115 3,400 49 Level Jacksonville Center
Sat 02:52:02 PM 30.0575 -81.8367 158° South 93 107 3,500 49 Climbing Jacksonville Center
Sat 02:53:03 PM 30.0325 -81.8250 157° South 100 115 3,500 -94 Level Jacksonville Center
Sat 02:54:10 PM 29.9989 -81.8086 148° Southeast 108 124 3,300 -47 Descending Jacksonville Center
Sat 02:55:11 PM 29.9758 -81.7919 149° Southeast 100 115 3,400 49 Climbing Jacksonville Center
Sat 02:56:12 PM 29.9525 -81.7756 148° Southeast 97 112 3,400 49 Level Jacksonville Center
Sat 02:57:13 PM 29.9294 -81.7589 146° Southeast 94 108 3,500 155 Climbing Jacksonville Center
Sat 02:58:08 PM 29.9086 -81.7425 154° Southeast 94 108 3,700  Climbing Jacksonville Center
Sat 02:59:15 PM 29.8792 -81.7261 160° South 104 120 3,500 -148 Descending Jacksonville Center
Sat 03:00:10 PM 29.8561 -81.7167 154° Southeast 101 116 3,400 -55 Descending Jacksonville Center
Sat 03:01:05 PM 29.8308 -81.7025 166° South 97 112 3,400 55 Level Jacksonville Center
Sat 03:01:59 PM 29.8078 -81.6958 160° South 99 114 3,500 45 Climbing Jacksonville Center
Sat 03:03:18 PM 29.7744 -81.6817 159° South 100 115 3,500 40 Level Jacksonville Center
Sat 03:04:28 PM 29.7428 -81.6678 158° South 108 124 3,600  Climbing Jacksonville Center
Sat 03:05:29 PM 29.7178 -81.6561 152° Southeast 102 117 3,500 -49 Descending Jacksonville Center
Sat 03:06:30 PM 29.6906 -81.6397 161° South 105 121 3,500  Level Jacksonville Center
Sat 03:07:31 PM 29.6611 -81.6283 160° South 104 120 3,500  Level Jacksonville Center
Sat 03:08:32 PM 29.6339 -81.6167 149° Southeast 103 119 3,500  Level Jacksonville Center
Sat 03:09:33 PM 29.6106 -81.6003 146° Southeast 95 109 3,500  Level Jacksonville Center
Sat 03:10:34 PM 29.5897 -81.5839 146° Southeast 98 113 3,500  Level Jacksonville Center
Sat 03:11:34 PM 29.5622 -81.5628 133° Southeast 109 125 3,500  Level Jacksonville Center
Sat 03:12:35 PM 29.5411 -81.5367 142° Southeast 106 122 3,500  Level Jacksonville Center
Sat 03:13:36 PM 29.5200 -81.5178 144° Southeast 105 121 3,500  Level Jacksonville Center
Sat 03:14:37 PM 29.4947 -81.4967 136° Southeast 104 120 3,500  Level Jacksonville Center
Sat 03:15:38 PM 29.4736 -81.4733 146° Southeast 109 125 3,500  Level Jacksonville Center
Sat 03:16:44 PM 29.4464 -81.4522 133° Southeast 103 119 3,500  Level Jacksonville Center
Sat 03:17:45 PM 29.4272 -81.4286 147° Southeast 95 109 3,500  Level Jacksonville Center
Sat 03:18:46 PM 29.4019 -81.4100 146° Southeast 99 114 3,500  Level Jacksonville Center
Sat 03:19:47 PM 29.3808 -81.3936 144° Southeast 98 113 3,500  Level Jacksonville Center
Sat 03:20:48 PM 29.3578 -81.3747 142° Southeast 100 115 3,500  Level Jacksonville Center
Sat 03:21:49 PM 29.3367 -81.3561 142° Southeast 99 114 3,500  Level Jacksonville Center
Sat 03:22:44 PM 29.3156 -81.3375 146° Southeast 99 114 3,500  Level Jacksonville Center
Sat 03:23:44 PM 29.2944 -81.3211 142° Southeast 97 112 3,500  Level Jacksonville Center
Sat 03:24:51 PM 29.2711 -81.3000 145° Southeast 93 107 3,500  Level Jacksonville Center
Sat 03:25:52 PM 29.2481 -81.2814 142° Southeast 98 113 3,500  Level Jacksonville Center
Sat 03:26:53 PM 29.2269 -81.2628 146° Southeast 95 109 3,500  Level Jacksonville Center
Sat 03:27:54 PM 29.2058 -81.2464 116° Southeast 97 112 3,500  Level Jacksonville Center
Sat 03:28:55 PM 29.1928 -81.2156 121° Southeast 95 109 3,500 -234 Level Jacksonville Center
Sat 03:30:02 PM 29.1781 -81.1872 118° Southeast 102 117 3,000 -472 Descending Jacksonville Center
Sat 03:31:02 PM 29.1628 -81.1542 124° Southeast 103 119 2,500 -248 Descending Jacksonville Center
Sat 03:32:03 PM 29.1478 -81.1283 121° Southeast 99 114 2,500  Level Jacksonville Center
Sat 03:33:10 PM 29.1328 -81.1000 141° Southeast 94 108 2,500 -49 Level Jacksonville Center
Sat 03:34:05 PM 29.1181 -81.0861 152° Southeast 90 104 2,400 -273 Descending Jacksonville Center
Sat 03:35:00 PM 29.0950 -81.0722 145° Southeast 95 109 2,000 -522 Descending Jacksonville Center
Sat 03:36:00 PM 29.0717 -81.0536 126° Southeast 102 117 1,400 -496 Descending Jacksonville Center
Sat 03:37:01 PM 29.0567 -81.0303 112° Southeast 99 114 1,000 -344 Descending Jacksonville Center
Sat 03:38:02 PM 29.0458 -80.9997 84° East 99 114 700 -295 Descending Jacksonville Center
Sat 03:39:03 PM 29.0478 -80.9781 84° East 72 83 400 -295 Descending Jacksonville Center

Login

Don't have an account? Register now (free) for customized features, flight alerts, and more!